LGL85L ELLX-LMML
Flight info
| Callsign | LGL85L |
|---|---|
| Flight time | N/A |
| Altitude | 37000 |
| Route | GTQ DCT DEVDI DCT ODINA DCT KISTO DCT ROXAN DCT GIANO DCT MARON DCT EKOLA L12 GZO |
| Aircraft | B738/M-SDE2E3FGHIRWXY/LB1 |
Departure
| Time | 2026-05-01 12:52 |
|---|---|
| Airport | Luxembourg-Findel International Airport (ELLX) |
Arrival
| Time | N/A |
|---|---|
| Airport | Malta International Airport (LMML) |
| Time | Latitude | Longitude | Altitude | Speed | Heading |
|---|---|---|---|---|---|
| 2026-05-01 12:33 | 49.63418 | 6.21843 | 1234 ft | 0 kts | 329° |
| 2026-05-01 12:37 | 49.63416 | 6.21844 | 1233 ft | 1 kts | 330° |
| 2026-05-01 12:38 | 49.63403 | 6.21856 | 1232 ft | 2 kts | 330° |
| 2026-05-01 12:38 | 49.63395 | 6.21863 | 1231 ft | 2 kts | 329° |
| 2026-05-01 12:38 | 49.63384 | 6.21881 | 1230 ft | 2 kts | 296° |
| 2026-05-01 12:38 | 49.63380 | 6.21903 | 1229 ft | 2 kts | 272° |
| 2026-05-01 12:39 | 49.63382 | 6.21926 | 1228 ft | 1 kts | 249° |
| 2026-05-01 12:39 | 49.63385 | 6.21935 | 1228 ft | 1 kts | 242° |
| 2026-05-01 12:39 | 49.63386 | 6.21938 | 1228 ft | 0 kts | 244° |
| 2026-05-01 12:45 | 49.63362 | 6.21865 | 1229 ft | 17 kts | 240° |
| 2026-05-01 12:45 | 49.63273 | 6.21644 | 1232 ft | 22 kts | 254° |
| 2026-05-01 12:45 | 49.63260 | 6.21538 | 1234 ft | 2 kts | 181° |
| 2026-05-01 12:46 | 49.63193 | 6.21573 | 1230 ft | 23 kts | 160° |
| 2026-05-01 12:46 | 49.63063 | 6.21582 | 1225 ft | 13 kts | 256° |
| 2026-05-01 12:46 | 49.63045 | 6.21490 | 1225 ft | 8 kts | 234° |
| 2026-05-01 12:46 | 49.63004 | 6.21399 | 1227 ft | 9 kts | 240° |
| 2026-05-01 12:47 | 49.62957 | 6.21265 | 1230 ft | 21 kts | 237° |
| 2026-05-01 12:47 | 49.62896 | 6.21078 | 1233 ft | 18 kts | 244° |
| 2026-05-01 12:47 | 49.62842 | 6.20911 | 1234 ft | 16 kts | 243° |
| 2026-05-01 12:47 | 49.62781 | 6.20775 | 1232 ft | 16 kts | 224° |
| 2026-05-01 12:48 | 49.62696 | 6.20649 | 1229 ft | 18 kts | 222° |
| 2026-05-01 12:48 | 49.62617 | 6.20524 | 1225 ft | 13 kts | 225° |
| 2026-05-01 12:48 | 49.62551 | 6.20420 | 1222 ft | 14 kts | 230° |
| 2026-05-01 12:48 | 49.62483 | 6.20260 | 1217 ft | 27 kts | 237° |
| 2026-05-01 12:49 | 49.62372 | 6.19963 | 1205 ft | 29 kts | 240° |
| 2026-05-01 12:49 | 49.62277 | 6.19692 | 1191 ft | 21 kts | 238° |
| 2026-05-01 12:49 | 49.62196 | 6.19479 | 1180 ft | 25 kts | 246° |
| 2026-05-01 12:49 | 49.62102 | 6.19232 | 1169 ft | 28 kts | 239° |
| 2026-05-01 12:50 | 49.61997 | 6.18981 | 1161 ft | 21 kts | 247° |
| 2026-05-01 12:50 | 49.61932 | 6.18796 | 1152 ft | 21 kts | 224° |
| 2026-05-01 12:50 | 49.61799 | 6.18745 | 1148 ft | 20 kts | 142° |
| 2026-05-01 12:50 | 49.61803 | 6.18860 | 1152 ft | 5 kts | 46° |
| 2026-05-01 12:51 | 49.61831 | 6.18949 | 1156 ft | 30 kts | 64° |
| 2026-05-01 12:51 | 49.62054 | 6.19574 | 1182 ft | 105 kts | 60° |
| 2026-05-01 12:51 | 49.63184 | 6.22738 | 1711 ft | 204 kts | 72° |
| 2026-05-01 12:52 | 49.63618 | 6.24660 | 2912 ft | 187 kts | 66° |
| 2026-05-01 12:52 | 49.64136 | 6.28582 | 3848 ft | 207 kts | 116° |
| 2026-05-01 12:52 | 49.63166 | 6.30272 | 4278 ft | 221 kts | 141° |
| 2026-05-01 12:53 | 49.60575 | 6.33344 | 5473 ft | 243 kts | 140° |
| 2026-05-01 12:53 | 49.59257 | 6.35076 | 6051 ft | 257 kts | 139° |
| 2026-05-01 12:53 | 49.57897 | 6.36907 | 6730 ft | 265 kts | 139° |
| 2026-05-01 12:54 | 49.56493 | 6.38791 | 7517 ft | 270 kts | 140° |
| 2026-05-01 12:54 | 49.53287 | 6.41703 | 9095 ft | 275 kts | 155° |
| 2026-05-01 12:54 | 49.51508 | 6.42849 | 9833 ft | 279 kts | 156° |
| 2026-05-01 12:55 | 49.47882 | 6.45234 | 11073 ft | 296 kts | 155° |
| 2026-05-01 12:55 | 49.46015 | 6.46517 | 11833 ft | 299 kts | 154° |
| 2026-05-01 12:55 | 49.44121 | 6.47828 | 12592 ft | 302 kts | 154° |
| 2026-05-01 12:56 | 49.42199 | 6.49162 | 13339 ft | 306 kts | 154° |
| 2026-05-01 12:56 | 49.40257 | 6.50508 | 14072 ft | 310 kts | 154° |
| 2026-05-01 12:56 | 49.38272 | 6.51880 | 14809 ft | 314 kts | 154° |
| 2026-05-01 12:56 | 49.36286 | 6.53251 | 15561 ft | 317 kts | 154° |
| 2026-05-01 12:57 | 49.34249 | 6.54656 | 16259 ft | 322 kts | 154° |
| 2026-05-01 12:57 | 49.30144 | 6.57484 | 17673 ft | 329 kts | 154° |
| 2026-05-01 12:57 | 49.28045 | 6.58929 | 18336 ft | 333 kts | 154° |
| 2026-05-01 12:58 | 49.25908 | 6.60399 | 18982 ft | 338 kts | 154° |
| 2026-05-01 12:58 | 49.23748 | 6.61826 | 19661 ft | 341 kts | 157° |
| 2026-05-01 12:58 | 49.21498 | 6.63007 | 20280 ft | 346 kts | 161° |
| 2026-05-01 12:59 | 49.16777 | 6.64877 | 21483 ft | 355 kts | 165° |
| 2026-05-01 12:59 | 49.14360 | 6.65756 | 22071 ft | 359 kts | 165° |
| 2026-05-01 12:59 | 49.09460 | 6.67553 | 23210 ft | 367 kts | 165° |
| 2026-05-01 13:00 | 49.04504 | 6.69406 | 24301 ft | 373 kts | 165° |
| 2026-05-01 13:00 | 49.01959 | 6.70365 | 24847 ft | 376 kts | 165° |
| 2026-05-01 13:01 | 48.96930 | 6.72749 | 25883 ft | 380 kts | 157° |
| 2026-05-01 13:01 | 48.94479 | 6.74313 | 26362 ft | 383 kts | 155° |
| 2026-05-01 13:01 | 48.89596 | 6.77679 | 27308 ft | 389 kts | 154° |
| 2026-05-01 13:02 | 48.87125 | 6.79401 | 27759 ft | 392 kts | 154° |
| 2026-05-01 13:07 | 48.31506 | 7.16909 | 36144 ft | 431 kts | 155° |
| 2026-05-01 13:07 | 48.28807 | 7.18700 | 36591 ft | 430 kts | 155° |
| 2026-05-01 13:07 | 48.26063 | 7.20521 | 37031 ft | 429 kts | 156° |
| 2026-05-01 13:08 | 48.23334 | 7.22329 | 37257 ft | 431 kts | 155° |
| 2026-05-01 13:08 | 48.17839 | 7.25966 | 37257 ft | 430 kts | 155° |
| 2026-05-01 13:09 | 48.12424 | 7.29542 | 37251 ft | 426 kts | 155° |
| 2026-05-01 13:09 | 48.06985 | 7.33129 | 37251 ft | 429 kts | 156° |
| 2026-05-01 13:10 | 48.01534 | 7.36713 | 37243 ft | 428 kts | 155° |
| 2026-05-01 13:10 | 47.96067 | 7.40298 | 37240 ft | 428 kts | 155° |
| 2026-05-01 13:11 | 47.90619 | 7.43861 | 37241 ft | 431 kts | 156° |
| 2026-05-01 13:11 | 47.85126 | 7.47443 | 37230 ft | 430 kts | 155° |
| 2026-05-01 13:12 | 47.79630 | 7.51021 | 37233 ft | 432 kts | 156° |
| 2026-05-01 13:12 | 47.74158 | 7.54571 | 37243 ft | 433 kts | 155° |
| 2026-05-01 13:13 | 47.68671 | 7.58302 | 37253 ft | 434 kts | 154° |
| 2026-05-01 13:13 | 47.63231 | 7.62183 | 37257 ft | 433 kts | 153° |
| 2026-05-01 13:14 | 47.57827 | 7.66031 | 37258 ft | 434 kts | 154° |
| 2026-05-01 13:14 | 47.52395 | 7.69869 | 37258 ft | 435 kts | 154° |
| 2026-05-01 13:15 | 47.46911 | 7.73717 | 37255 ft | 435 kts | 154° |
| 2026-05-01 13:15 | 47.41471 | 7.77519 | 37252 ft | 436 kts | 154° |
| 2026-05-01 13:16 | 47.35984 | 7.81338 | 37251 ft | 436 kts | 154° |
| 2026-05-01 13:16 | 47.30495 | 7.85156 | 37251 ft | 437 kts | 154° |
| 2026-05-01 13:17 | 47.19546 | 7.92739 | 37258 ft | 436 kts | 154° |
| 2026-05-01 13:18 | 47.11266 | 7.98456 | 37262 ft | 438 kts | 154° |
| 2026-05-01 13:18 | 47.05801 | 8.02216 | 37266 ft | 438 kts | 154° |
| 2026-05-01 13:19 | 47.00261 | 8.06017 | 37273 ft | 439 kts | 154° |
| 2026-05-01 13:20 | 46.92014 | 8.11661 | 37285 ft | 439 kts | 154° |
| 2026-05-01 13:20 | 46.86469 | 8.15447 | 37291 ft | 438 kts | 154° |
| 2026-05-01 13:21 | 46.78168 | 8.21098 | 37311 ft | 439 kts | 154° |
| 2026-05-01 13:21 | 46.72646 | 8.24840 | 37332 ft | 440 kts | 154° |
| 2026-05-01 13:22 | 46.67096 | 8.28595 | 37342 ft | 441 kts | 154° |
| 2026-05-01 13:22 | 46.61530 | 8.32356 | 37333 ft | 441 kts | 154° |
| 2026-05-01 13:23 | 46.55980 | 8.36095 | 37336 ft | 441 kts | 154° |
| 2026-05-01 13:23 | 46.50411 | 8.39838 | 37326 ft | 441 kts | 154° |
| 2026-05-01 13:24 | 46.44810 | 8.43591 | 37317 ft | 443 kts | 154° |
| 2026-05-01 13:25 | 46.36439 | 8.49196 | 37311 ft | 443 kts | 154° |
| 2026-05-01 13:25 | 46.30836 | 8.52940 | 37314 ft | 444 kts | 154° |
| 2026-05-01 13:26 | 46.25263 | 8.56644 | 37308 ft | 444 kts | 154° |
| 2026-05-01 13:26 | 46.19644 | 8.60379 | 37346 ft | 444 kts | 154° |
| 2026-05-01 13:27 | 46.14027 | 8.64099 | 37348 ft | 444 kts | 154° |
| 2026-05-01 13:27 | 46.05501 | 8.69216 | 37352 ft | 446 kts | 161° |
| 2026-05-01 13:28 | 45.96621 | 8.73380 | 37339 ft | 446 kts | 162° |
| 2026-05-01 13:29 | 45.84855 | 8.78917 | 37341 ft | 447 kts | 161° |
| 2026-05-01 13:31 | 45.67159 | 8.87401 | 37344 ft | 449 kts | 161° |
| 2026-05-01 13:32 | 45.52391 | 8.94467 | 37334 ft | 455 kts | 161° |
| 2026-05-01 13:33 | 45.37467 | 9.01567 | 37331 ft | 452 kts | 161° |
| 2026-05-01 13:34 | 45.25509 | 9.07221 | 37318 ft | 454 kts | 160° |
| 2026-05-01 13:35 | 45.16519 | 9.11455 | 37331 ft | 455 kts | 161° |
| 2026-05-01 13:36 | 45.07504 | 9.15690 | 37325 ft | 455 kts | 161° |
| 2026-05-01 13:36 | 44.98488 | 9.19918 | 37327 ft | 457 kts | 161° |
| 2026-05-01 13:37 | 44.93500 | 9.22247 | 37323 ft | 457 kts | 161° |
| 2026-05-01 13:37 | 44.86415 | 9.25544 | 37315 ft | 458 kts | 160° |
| 2026-05-01 13:38 | 44.77395 | 9.29734 | 37309 ft | 457 kts | 161° |
| 2026-05-01 13:39 | 44.71340 | 9.32539 | 37305 ft | 459 kts | 161° |
| 2026-05-01 13:39 | 44.65254 | 9.35350 | 37299 ft | 459 kts | 161° |
| 2026-05-01 13:40 | 44.59207 | 9.38139 | 37294 ft | 460 kts | 160° |
| 2026-05-01 13:40 | 44.53117 | 9.40943 | 37288 ft | 460 kts | 160° |
| 2026-05-01 13:41 | 44.47038 | 9.43739 | 37289 ft | 462 kts | 160° |
| 2026-05-01 13:41 | 44.40941 | 9.46536 | 37292 ft | 461 kts | 160° |
| 2026-05-01 13:42 | 44.34829 | 9.49331 | 37291 ft | 464 kts | 160° |
| 2026-05-01 13:42 | 44.28704 | 9.52124 | 37291 ft | 462 kts | 160° |
| 2026-05-01 13:43 | 44.22611 | 9.54896 | 37292 ft | 463 kts | 161° |
| 2026-05-01 13:43 | 44.16506 | 9.57670 | 37284 ft | 464 kts | 161° |
| 2026-05-01 13:44 | 44.10344 | 9.60463 | 37279 ft | 465 kts | 160° |
| 2026-05-01 13:44 | 44.04203 | 9.63237 | 37279 ft | 466 kts | 160° |
| 2026-05-01 13:45 | 43.98029 | 9.66021 | 37274 ft | 466 kts | 161° |
| 2026-05-01 13:45 | 43.91852 | 9.68801 | 37272 ft | 466 kts | 161° |
| 2026-05-01 13:46 | 43.85720 | 9.71555 | 37274 ft | 468 kts | 161° |
| 2026-05-01 13:46 | 43.79526 | 9.74334 | 37271 ft | 468 kts | 161° |
| 2026-05-01 13:47 | 43.73345 | 9.77102 | 37267 ft | 468 kts | 161° |
| 2026-05-01 13:47 | 43.67129 | 9.79881 | 37268 ft | 469 kts | 161° |
| 2026-05-01 13:48 | 43.60934 | 9.82638 | 37267 ft | 471 kts | 161° |
| 2026-05-01 13:48 | 43.54720 | 9.85402 | 37271 ft | 471 kts | 161° |
| 2026-05-01 13:49 | 43.48503 | 9.88170 | 37266 ft | 472 kts | 161° |
| 2026-05-01 13:49 | 43.42237 | 9.90945 | 37259 ft | 471 kts | 161° |
| 2026-05-01 13:50 | 43.36027 | 9.93681 | 37266 ft | 470 kts | 161° |
| 2026-05-01 13:50 | 43.29803 | 9.96424 | 37264 ft | 472 kts | 161° |
| 2026-05-01 13:51 | 43.23541 | 9.99176 | 37257 ft | 474 kts | 161° |
| 2026-05-01 13:51 | 43.17257 | 10.01924 | 37258 ft | 474 kts | 161° |
| 2026-05-01 13:52 | 43.10994 | 10.04660 | 37260 ft | 474 kts | 161° |
| 2026-05-01 13:52 | 43.04731 | 10.07396 | 37251 ft | 475 kts | 161° |
| 2026-05-01 13:53 | 42.98403 | 10.10151 | 37252 ft | 476 kts | 161° |
| 2026-05-01 13:53 | 42.88981 | 10.14239 | 37243 ft | 477 kts | 161° |
| 2026-05-01 13:54 | 42.82662 | 10.16979 | 37245 ft | 477 kts | 161° |
| 2026-05-01 13:54 | 42.76320 | 10.19726 | 37247 ft | 478 kts | 161° |
| 2026-05-01 13:55 | 42.69996 | 10.22446 | 37245 ft | 480 kts | 161° |
| 2026-05-01 13:55 | 42.63647 | 10.25184 | 37239 ft | 479 kts | 161° |
| 2026-05-01 13:56 | 42.57290 | 10.27921 | 37237 ft | 480 kts | 162° |
| 2026-05-01 13:56 | 42.50936 | 10.30639 | 37240 ft | 480 kts | 162° |
| 2026-05-01 13:57 | 42.45652 | 10.32896 | 37226 ft | 481 kts | 162° |
| 2026-05-01 13:57 | 42.38217 | 10.36073 | 37231 ft | 481 kts | 162° |
| 2026-05-01 13:58 | 42.31897 | 10.38855 | 37231 ft | 481 kts | 159° |
| 2026-05-01 13:58 | 42.25678 | 10.42207 | 37227 ft | 481 kts | 156° |
| 2026-05-01 13:59 | 42.19539 | 10.45813 | 37203 ft | 481 kts | 155° |
| 2026-05-01 13:59 | 42.13427 | 10.49386 | 37220 ft | 483 kts | 156° |
| 2026-05-01 14:00 | 42.07243 | 10.52918 | 37213 ft | 481 kts | 156° |
| 2026-05-01 14:00 | 42.01090 | 10.56404 | 37233 ft | 482 kts | 156° |
| 2026-05-01 14:01 | 41.94936 | 10.59869 | 37232 ft | 483 kts | 156° |
| 2026-05-01 14:01 | 41.88731 | 10.63346 | 37236 ft | 484 kts | 157° |
| 2026-05-01 14:02 | 41.82534 | 10.66828 | 37220 ft | 483 kts | 158° |
| 2026-05-01 14:02 | 41.76329 | 10.70309 | 37221 ft | 485 kts | 157° |
| 2026-05-01 14:03 | 41.70099 | 10.73789 | 37218 ft | 484 kts | 158° |
| 2026-05-01 14:03 | 41.63898 | 10.77234 | 37218 ft | 486 kts | 158° |
| 2026-05-01 14:04 | 41.57687 | 10.80694 | 37214 ft | 487 kts | 158° |
| 2026-05-01 14:04 | 41.52486 | 10.83589 | 37219 ft | 485 kts | 158° |
| 2026-05-01 14:05 | 41.45215 | 10.87615 | 37213 ft | 486 kts | 158° |
| 2026-05-01 14:05 | 41.38967 | 10.91071 | 37206 ft | 486 kts | 158° |
| 2026-05-01 14:06 | 41.32753 | 10.94494 | 37200 ft | 487 kts | 158° |
| 2026-05-01 14:06 | 41.26481 | 10.97943 | 37196 ft | 486 kts | 158° |
| 2026-05-01 14:07 | 41.20258 | 11.01361 | 37207 ft | 486 kts | 159° |
| 2026-05-01 14:08 | 41.10898 | 11.06480 | 37193 ft | 488 kts | 158° |
| 2026-05-01 14:08 | 41.04621 | 11.09910 | 37196 ft | 488 kts | 158° |
| 2026-05-01 14:09 | 40.98336 | 11.13336 | 37182 ft | 487 kts | 159° |
| 2026-05-01 14:09 | 40.92081 | 11.16742 | 37188 ft | 488 kts | 158° |
| 2026-05-01 14:10 | 40.85814 | 11.20153 | 37190 ft | 487 kts | 159° |
| 2026-05-01 14:10 | 40.79590 | 11.23643 | 37176 ft | 489 kts | 156° |
| 2026-05-01 14:11 | 40.73500 | 11.27560 | 37200 ft | 488 kts | 155° |
| 2026-05-01 14:11 | 40.64385 | 11.33610 | 37158 ft | 490 kts | 155° |
| 2026-05-01 14:12 | 40.58290 | 11.37597 | 37179 ft | 490 kts | 154° |
| 2026-05-01 14:12 | 40.52230 | 11.41516 | 37168 ft | 488 kts | 155° |
| 2026-05-01 14:13 | 40.47125 | 11.44785 | 37182 ft | 490 kts | 155° |
| 2026-05-01 14:13 | 40.39993 | 11.49347 | 37158 ft | 491 kts | 156° |
| 2026-05-01 14:14 | 40.33861 | 11.53264 | 37181 ft | 490 kts | 156° |
| 2026-05-01 14:14 | 40.27750 | 11.57151 | 37172 ft | 490 kts | 155° |
| 2026-05-01 14:15 | 40.21616 | 11.61054 | 37195 ft | 492 kts | 156° |
| 2026-05-01 14:15 | 40.15451 | 11.64958 | 37189 ft | 491 kts | 156° |
| 2026-05-01 14:16 | 40.09353 | 11.68819 | 37184 ft | 491 kts | 157° |
| 2026-05-01 14:16 | 40.03193 | 11.72711 | 37199 ft | 492 kts | 157° |
| 2026-05-01 14:17 | 39.97020 | 11.76604 | 37200 ft | 492 kts | 157° |
| 2026-05-01 14:17 | 39.90879 | 11.80460 | 37189 ft | 490 kts | 157° |
| 2026-05-01 14:18 | 39.84771 | 11.84285 | 37200 ft | 491 kts | 157° |
| 2026-05-01 14:18 | 39.79638 | 11.87506 | 37189 ft | 489 kts | 158° |
| 2026-05-01 14:19 | 39.72472 | 11.91985 | 37170 ft | 490 kts | 158° |
| 2026-05-01 14:19 | 39.66342 | 11.95811 | 37202 ft | 490 kts | 158° |
| 2026-05-01 14:20 | 39.57227 | 12.01499 | 37174 ft | 487 kts | 159° |
| 2026-05-01 14:21 | 39.51060 | 12.05324 | 37191 ft | 489 kts | 158° |
| 2026-05-01 14:21 | 39.44972 | 12.09100 | 37186 ft | 486 kts | 158° |
| 2026-05-01 14:22 | 39.35812 | 12.14769 | 37175 ft | 486 kts | 158° |
| 2026-05-01 14:22 | 39.29749 | 12.18502 | 37187 ft | 487 kts | 159° |
| 2026-05-01 14:23 | 39.23625 | 12.22274 | 37170 ft | 485 kts | 159° |
| 2026-05-01 14:23 | 39.17573 | 12.26001 | 37174 ft | 483 kts | 159° |
| 2026-05-01 14:24 | 39.11488 | 12.29728 | 37180 ft | 486 kts | 159° |
| 2026-05-01 14:24 | 39.05396 | 12.33453 | 37182 ft | 483 kts | 159° |
| 2026-05-01 14:25 | 38.99356 | 12.37140 | 37173 ft | 482 kts | 159° |
| 2026-05-01 14:25 | 38.93285 | 12.40843 | 37169 ft | 484 kts | 159° |
| 2026-05-01 14:26 | 38.84220 | 12.46428 | 37175 ft | 483 kts | 157° |
| 2026-05-01 14:27 | 38.78312 | 12.50555 | 37165 ft | 484 kts | 155° |
| 2026-05-01 14:27 | 38.72431 | 12.54837 | 37157 ft | 486 kts | 155° |
| 2026-05-01 14:28 | 38.63615 | 12.61173 | 37155 ft | 486 kts | 155° |
| 2026-05-01 14:28 | 38.57704 | 12.65360 | 37141 ft | 483 kts | 156° |
| 2026-05-01 14:29 | 38.51841 | 12.69484 | 37136 ft | 484 kts | 156° |
| 2026-05-01 14:30 | 38.40054 | 12.77736 | 37134 ft | 482 kts | 156° |
| 2026-05-01 14:31 | 38.31222 | 12.83901 | 37083 ft | 485 kts | 156° |
| 2026-05-01 14:31 | 38.28275 | 12.85952 | 36797 ft | 487 kts | 156° |
| 2026-05-01 14:31 | 38.25304 | 12.88021 | 36486 ft | 484 kts | 156° |
| 2026-05-01 14:31 | 38.22373 | 12.90061 | 36210 ft | 481 kts | 156° |
| 2026-05-01 14:32 | 38.19412 | 12.92123 | 35965 ft | 479 kts | 157° |
| 2026-05-01 14:32 | 38.17500 | 12.93451 | 35810 ft | 480 kts | 157° |
| 2026-05-01 14:32 | 38.13556 | 12.96183 | 35510 ft | 481 kts | 157° |
| 2026-05-01 14:32 | 38.10659 | 12.98190 | 35279 ft | 479 kts | 157° |
| 2026-05-01 14:33 | 38.07745 | 13.00211 | 35035 ft | 476 kts | 158° |
| 2026-05-01 14:33 | 38.04865 | 13.02207 | 34821 ft | 473 kts | 158° |
| 2026-05-01 14:33 | 38.01977 | 13.04208 | 34589 ft | 470 kts | 158° |
| 2026-05-01 14:33 | 37.99106 | 13.06198 | 34361 ft | 469 kts | 158° |
| 2026-05-01 14:34 | 37.96252 | 13.08170 | 34111 ft | 468 kts | 158° |
| 2026-05-01 14:34 | 37.93399 | 13.10136 | 33829 ft | 466 kts | 158° |
| 2026-05-01 14:34 | 37.90573 | 13.12082 | 33550 ft | 464 kts | 158° |
| 2026-05-01 14:34 | 37.87753 | 13.14019 | 33272 ft | 464 kts | 158° |
| 2026-05-01 14:35 | 37.86951 | 13.14570 | 33195 ft | 464 kts | 158° |